sensor_id;sensor_type;location;lat;lon;timestamp;pressure;altitude;pressure_sealevel;temperature
12409;BMP180;6268;48.188;17.134;2023-02-20T00:02:12;49644.88;;;-134.68
12409;BMP180;6268;48.188;17.134;2023-02-20T00:04:41;49642.94;;;-134.68
12409;BMP180;6268;48.188;17.134;2023-02-20T00:07:10;49644.88;;;-134.68
12409;BMP180;6268;48.188;17.134;2023-02-20T00:09:39;49642.94;;;-134.68
12409;BMP180;6268;48.188;17.134;2023-02-20T00:12:08;49642.94;;;-134.68
12409;BMP180;6268;48.188;17.134;2023-02-20T00:14:36;49644.88;;;-134.68
12409;BMP180;6268;48.188;17.134;2023-02-20T00:17:05;49644.88;;;-134.68
12409;BMP180;6268;48.188;17.134;2023-02-20T00:19:35;49642.94;;;-134.68
12409;BMP180;6268;48.188;17.134;2023-02-20T00:22:04;49646.84;;;-134.68
12409;BMP180;6268;48.188;17.134;2023-02-20T00:24:33;49644.88;;;-134.68
12409;BMP180;6268;48.188;17.134;2023-02-20T00:27:02;49642.94;;;-134.68
12409;BMP180;6268;48.188;17.134;2023-02-20T00:29:31;49642.94;;;-134.68
12409;BMP180;6268;48.188;17.134;2023-02-20T00:32:00;49642.94;;;-134.68
12409;BMP180;6268;48.188;17.134;2023-02-20T00:34:29;49642.94;;;-134.68
12409;BMP180;6268;48.188;17.134;2023-02-20T00:36:59;49642.94;;;-134.68
12409;BMP180;6268;48.188;17.134;2023-02-20T00:39:28;49644.88;;;-134.68
12409;BMP180;6268;48.188;17.134;2023-02-20T00:41:58;49642.94;;;-134.68
12409;BMP180;6268;48.188;17.134;2023-02-20T00:44:27;49644.88;;;-134.68
12409;BMP180;6268;48.188;17.134;2023-02-20T00:46:56;49642.94;;;-134.68
12409;BMP180;6268;48.188;17.134;2023-02-20T00:49:25;49642.94;;;-134.68
12409;BMP180;6268;48.188;17.134;2023-02-20T00:51:54;49642.94;;;-134.68
12409;BMP180;6268;48.188;17.134;2023-02-20T00:54:24;49642.94;;;-134.68
12409;BMP180;6268;48.188;17.134;2023-02-20T00:56:53;49642.94;;;-134.68
12409;BMP180;6268;48.188;17.134;2023-02-20T00:59:22;49646.84;;;-134.68
12409;BMP180;6268;48.188;17.134;2023-02-20T01:01:50;49642.94;;;-134.68
12409;BMP180;6268;48.188;17.134;2023-02-20T01:04:19;49642.94;;;-134.68
12409;BMP180;6268;48.188;17.134;2023-02-20T01:06:48;49642.94;;;-134.68
12409;BMP180;6268;48.188;17.134;2023-02-20T01:09:17;49642.94;;;-134.68
12409;BMP180;6268;48.188;17.134;2023-02-20T01:11:47;49644.88;;;-134.68
12409;BMP180;6268;48.188;17.134;2023-02-20T01:14:16;49642.94;;;-134.68
12409;BMP180;6268;48.188;17.134;2023-02-20T01:16:47;49642.94;;;-134.68
12409;BMP180;6268;48.188;17.134;2023-02-20T01:19:18;49642.94;;;-134.68
12409;BMP180;6268;48.188;17.134;2023-02-20T01:21:47;49639.06;;;-134.68
12409;BMP180;6268;48.188;17.134;2023-02-20T01:24:17;49642.94;;;-134.68
12409;BMP180;6268;48.188;17.134;2023-02-20T01:26:48;49644.88;;;-134.68
12409;BMP180;6268;48.188;17.134;2023-02-20T01:29:17;49641.00;;;-134.68
12409;BMP180;6268;48.188;17.134;2023-02-20T01:31:48;49642.94;;;-134.68
12409;BMP180;6268;48.188;17.134;2023-02-20T01:34:19;49642.94;;;-134.68
12409;BMP180;6268;48.188;17.134;2023-02-20T01:36:50;49642.94;;;-134.68
12409;BMP180;6268;48.188;17.134;2023-02-20T01:39:21;49642.94;;;-134.68
12409;BMP180;6268;48.188;17.134;2023-02-20T01:41:57;49642.94;;;-134.68
12409;BMP180;6268;48.188;17.134;2023-02-20T01:44:29;49646.84;;;-134.68
12409;BMP180;6268;48.188;17.134;2023-02-20T01:47:00;49642.94;;;-134.68
12409;BMP180;6268;48.188;17.134;2023-02-20T01:49:38;49644.88;;;-134.68
12409;BMP180;6268;48.188;17.134;2023-02-20T01:52:13;49642.94;;;-134.68
12409;BMP180;6268;48.188;17.134;2023-02-20T01:54:49;49641.00;;;-134.68
12409;BMP180;6268;48.188;17.134;2023-02-20T01:57:25;49642.94;;;-134.68
12409;BMP180;6268;48.188;17.134;2023-02-20T02:00:02;49639.06;;;-134.68
12409;BMP180;6268;48.188;17.134;2023-02-20T02:02:37;49642.94;;;-134.68
12409;BMP180;6268;48.188;17.134;2023-02-20T02:05:09;49646.84;;;-134.68
12409;BMP180;6268;48.188;17.134;2023-02-20T02:07:39;49642.94;;;-134.68
12409;BMP180;6268;48.188;17.134;2023-02-20T02:10:12;49644.88;;;-134.68
12409;BMP180;6268;48.188;17.134;2023-02-20T02:12:47;49641.00;;;-134.68
12409;BMP180;6268;48.188;17.134;2023-02-20T02:15:20;49642.94;;;-134.68
12409;BMP180;6268;48.188;17.134;2023-02-20T02:18:15;49644.88;;;-134.68
12409;BMP180;6268;48.188;17.134;2023-02-20T02:21:30;49642.94;;;-134.68
12409;BMP180;6268;48.188;17.134;2023-02-20T02:30:59;49642.94;;;-134.68
12409;BMP180;6268;48.188;17.134;2023-02-20T02:34:14;49641.00;;;-134.68
12409;BMP180;6268;48.188;17.134;2023-02-20T02:37:02;49642.94;;;-134.68
12409;BMP180;6268;48.188;17.134;2023-02-20T02:39:46;49642.94;;;-134.68
12409;BMP180;6268;48.188;17.134;2023-02-20T02:42:26;49642.94;;;-134.68
12409;BMP180;6268;48.188;17.134;2023-02-20T02:45:07;49642.94;;;-134.68
12409;BMP180;6268;48.188;17.134;2023-02-20T02:47:46;49641.00;;;-134.68
12409;BMP180;6268;48.188;17.134;2023-02-20T02:50:22;49642.94;;;-134.68
12409;BMP180;6268;48.188;17.134;2023-02-20T02:52:54;49642.94;;;-134.68
12409;BMP180;6268;48.188;17.134;2023-02-20T02:55:25;49644.88;;;-134.68
12409;BMP180;6268;48.188;17.134;2023-02-20T02:57:55;49641.00;;;-134.68
12409;BMP180;6268;48.188;17.134;2023-02-20T03:00:28;49644.88;;;-134.68
12409;BMP180;6268;48.188;17.134;2023-02-20T03:03:04;49642.94;;;-134.68
12409;BMP180;6268;48.188;17.134;2023-02-20T03:05:42;49642.94;;;-134.68
12409;BMP180;6268;48.188;17.134;2023-02-20T03:08:26;49642.94;;;-134.68
12409;BMP180;6268;48.188;17.134;2023-02-20T03:11:06;49646.84;;;-134.68
12409;BMP180;6268;48.188;17.134;2023-02-20T03:13:39;49641.00;;;-134.68
12409;BMP180;6268;48.188;17.134;2023-02-20T03:16:35;49642.94;;;-134.68
12409;BMP180;6268;48.188;17.134;2023-02-20T03:19:12;49642.94;;;-134.68
12409;BMP180;6268;48.188;17.134;2023-02-20T03:21:46;49644.88;;;-134.68
12409;BMP180;6268;48.188;17.134;2023-02-20T03:24:20;49644.88;;;-134.68
12409;BMP180;6268;48.188;17.134;2023-02-20T03:26:52;49641.00;;;-134.68
12409;BMP180;6268;48.188;17.134;2023-02-20T03:29:30;49642.94;;;-134.68
12409;BMP180;6268;48.188;17.134;2023-02-20T03:32:06;49642.94;;;-134.68
12409;BMP180;6268;48.188;17.134;2023-02-20T03:34:53;49642.94;;;-134.68
12409;BMP180;6268;48.188;17.134;2023-02-20T03:37:44;49642.94;;;-134.68
12409;BMP180;6268;48.188;17.134;2023-02-20T03:40:32;49641.00;;;-134.68
12409;BMP180;6268;48.188;17.134;2023-02-20T03:43:20;49642.94;;;-134.68
12409;BMP180;6268;48.188;17.134;2023-02-20T03:45:51;49646.84;;;-134.68
12409;BMP180;6268;48.188;17.134;2023-02-20T03:48:27;49642.94;;;-134.68
12409;BMP180;6268;48.188;17.134;2023-02-20T03:50:58;49646.84;;;-134.68
12409;BMP180;6268;48.188;17.134;2023-02-20T03:53:40;49642.94;;;-134.68
12409;BMP180;6268;48.188;17.134;2023-02-20T03:56:16;49644.88;;;-134.68
12409;BMP180;6268;48.188;17.134;2023-02-20T03:58:53;49644.88;;;-134.68
12409;BMP180;6268;48.188;17.134;2023-02-20T04:01:25;49639.06;;;-134.68
12409;BMP180;6268;48.188;17.134;2023-02-20T04:03:56;49642.94;;;-134.68
12409;BMP180;6268;48.188;17.134;2023-02-20T04:06:31;49644.88;;;-134.68
12409;BMP180;6268;48.188;17.134;2023-02-20T04:09:04;49646.84;;;-134.68
12409;BMP180;6268;48.188;17.134;2023-02-20T04:11:39;49646.84;;;-134.68
12409;BMP180;6268;48.188;17.134;2023-02-20T04:14:13;49641.00;;;-134.68
12409;BMP180;6268;48.188;17.134;2023-02-20T04:16:48;49644.88;;;-134.68
12409;BMP180;6268;48.188;17.134;2023-02-20T04:19:18;49642.94;;;-134.68
12409;BMP180;6268;48.188;17.134;2023-02-20T04:21:52;49642.94;;;-134.68
12409;BMP180;6268;48.188;17.134;2023-02-20T04:24:28;49642.94;;;-134.68
12409;BMP180;6268;48.188;17.134;2023-02-20T04:27:00;49644.88;;;-134.68
12409;BMP180;6268;48.188;17.134;2023-02-20T04:29:29;49642.94;;;-134.68
12409;BMP180;6268;48.188;17.134;2023-02-20T04:31:58;49642.94;;;-134.68
12409;BMP180;6268;48.188;17.134;2023-02-20T04:34:27;49642.94;;;-134.68
12409;BMP180;6268;48.188;17.134;2023-02-20T04:37:06;49644.88;;;-134.68
12409;BMP180;6268;48.188;17.134;2023-02-20T04:39:36;49644.88;;;-134.68
12409;BMP180;6268;48.188;17.134;2023-02-20T04:42:06;49644.88;;;-134.68
12409;BMP180;6268;48.188;17.134;2023-02-20T04:44:35;49642.94;;;-134.68
12409;BMP180;6268;48.188;17.134;2023-02-20T04:47:11;49642.94;;;-134.68
12409;BMP180;6268;48.188;17.134;2023-02-20T04:49:40;49646.84;;;-134.68
12409;BMP180;6268;48.188;17.134;2023-02-20T04:52:08;49641.00;;;-134.68
12409;BMP180;6268;48.188;17.134;2023-02-20T04:54:37;49642.94;;;-134.68
12409;BMP180;6268;48.188;17.134;2023-02-20T04:57:07;49644.88;;;-134.68
12409;BMP180;6268;48.188;17.134;2023-02-20T04:59:36;49642.94;;;-134.68
12409;BMP180;6268;48.188;17.134;2023-02-20T05:02:05;49644.88;;;-134.68
12409;BMP180;6268;48.188;17.134;2023-02-20T05:04:36;49642.94;;;-134.68
12409;BMP180;6268;48.188;17.134;2023-02-20T05:07:05;49642.94;;;-134.68
12409;BMP180;6268;48.188;17.134;2023-02-20T05:09:34;49644.88;;;-134.68
12409;BMP180;6268;48.188;17.134;2023-02-20T05:12:03;49642.94;;;-134.68
12409;BMP180;6268;48.188;17.134;2023-02-20T05:14:34;49644.88;;;-134.68
12409;BMP180;6268;48.188;17.134;2023-02-20T05:17:02;49644.88;;;-134.68
12409;BMP180;6268;48.188;17.134;2023-02-20T05:19:31;49642.94;;;-134.68
12409;BMP180;6268;48.188;17.134;2023-02-20T05:22:00;49642.94;;;-134.68
12409;BMP180;6268;48.188;17.134;2023-02-20T05:24:50;49641.00;;;-134.68
12409;BMP180;6268;48.188;17.134;2023-02-20T05:27:21;49644.88;;;-134.68
12409;BMP180;6268;48.188;17.134;2023-02-20T05:29:55;49644.88;;;-134.68
12409;BMP180;6268;48.188;17.134;2023-02-20T05:32:27;49642.94;;;-134.68
12409;BMP180;6268;48.188;17.134;2023-02-20T05:34:56;49641.00;;;-134.68
12409;BMP180;6268;48.188;17.134;2023-02-20T05:37:26;49642.94;;;-134.68
12409;BMP180;6268;48.188;17.134;2023-02-20T05:39:55;49641.00;;;-134.68
12409;BMP180;6268;48.188;17.134;2023-02-20T05:42:24;49642.94;;;-134.68
12409;BMP180;6268;48.188;17.134;2023-02-20T05:44:54;49646.84;;;-134.68
12409;BMP180;6268;48.188;17.134;2023-02-20T05:47:23;49642.94;;;-134.68
12409;BMP180;6268;48.188;17.134;2023-02-20T05:49:52;49642.94;;;-134.68
12409;BMP180;6268;48.188;17.134;2023-02-20T05:52:20;49642.94;;;-134.68
12409;BMP180;6268;48.188;17.134;2023-02-20T05:54:49;49642.94;;;-134.68
12409;BMP180;6268;48.188;17.134;2023-02-20T05:57:18;49642.94;;;-134.68
12409;BMP180;6268;48.188;17.134;2023-02-20T05:59:47;49642.94;;;-134.68
12409;BMP180;6268;48.188;17.134;2023-02-20T06:02:17;49644.88;;;-134.68
12409;BMP180;6268;48.188;17.134;2023-02-20T06:04:46;49642.94;;;-134.68
12409;BMP180;6268;48.188;17.134;2023-02-20T06:07:15;49642.94;;;-134.68
12409;BMP180;6268;48.188;17.134;2023-02-20T06:09:44;49641.00;;;-134.68
12409;BMP180;6268;48.188;17.134;2023-02-20T06:12:13;49642.94;;;-134.68
12409;BMP180;6268;48.188;17.134;2023-02-20T06:14:41;49641.00;;;-134.68
12409;BMP180;6268;48.188;17.134;2023-02-20T06:17:10;49644.88;;;-134.68
12409;BMP180;6268;48.188;17.134;2023-02-20T06:19:41;49641.00;;;-134.68
12409;BMP180;6268;48.188;17.134;2023-02-20T06:22:09;49642.94;;;-134.68
12409;BMP180;6268;48.188;17.134;2023-02-20T06:24:38;49642.94;;;-134.68
12409;BMP180;6268;48.188;17.134;2023-02-20T06:27:07;49641.00;;;-134.68
12409;BMP180;6268;48.188;17.134;2023-02-20T06:29:36;49644.88;;;-134.68
12409;BMP180;6268;48.188;17.134;2023-02-20T06:32:05;49644.88;;;-134.68
12409;BMP180;6268;48.188;17.134;2023-02-20T06:34:34;49642.94;;;-134.68
12409;BMP180;6268;48.188;17.134;2023-02-20T06:37:05;49641.00;;;-134.68
12409;BMP180;6268;48.188;17.134;2023-02-20T06:39:33;49641.00;;;-134.68
12409;BMP180;6268;48.188;17.134;2023-02-20T06:42:02;49641.00;;;-134.68
12409;BMP180;6268;48.188;17.134;2023-02-20T06:44:31;49642.94;;;-134.68
12409;BMP180;6268;48.188;17.134;2023-02-20T06:47:00;49644.88;;;-134.68
12409;BMP180;6268;48.188;17.134;2023-02-20T06:49:29;49642.94;;;-134.68
12409;BMP180;6268;48.188;17.134;2023-02-20T06:51:58;49642.94;;;-134.68
12409;BMP180;6268;48.188;17.134;2023-02-20T06:54:31;49644.88;;;-134.68
12409;BMP180;6268;48.188;17.134;2023-02-20T06:57:01;49644.88;;;-134.68
12409;BMP180;6268;48.188;17.134;2023-02-20T06:59:47;49642.94;;;-134.68
12409;BMP180;6268;48.188;17.134;2023-02-20T07:02:16;49642.94;;;-134.68
12409;BMP180;6268;48.188;17.134;2023-02-20T07:04:48;49642.94;;;-134.68
12409;BMP180;6268;48.188;17.134;2023-02-20T07:07:17;49644.88;;;-134.68
12409;BMP180;6268;48.188;17.134;2023-02-20T07:09:47;49642.94;;;-134.68
12409;BMP180;6268;48.188;17.134;2023-02-20T07:12:16;49639.06;;;-134.68
12409;BMP180;6268;48.188;17.134;2023-02-20T07:14:45;49642.94;;;-134.68
12409;BMP180;6268;48.188;17.134;2023-02-20T07:17:14;49642.94;;;-134.68
12409;BMP180;6268;48.188;17.134;2023-02-20T07:19:43;49641.00;;;-134.68
12409;BMP180;6268;48.188;17.134;2023-02-20T07:22:12;49644.88;;;-134.68
12409;BMP180;6268;48.188;17.134;2023-02-20T07:24:41;49642.94;;;-134.68
12409;BMP180;6268;48.188;17.134;2023-02-20T07:27:11;49642.94;;;-134.68
12409;BMP180;6268;48.188;17.134;2023-02-20T07:29:40;49646.84;;;-134.68
12409;BMP180;6268;48.188;17.134;2023-02-20T07:32:09;49644.88;;;-134.68
12409;BMP180;6268;48.188;17.134;2023-02-20T07:34:37;49644.88;;;-134.68
12409;BMP180;6268;48.188;17.134;2023-02-20T07:37:10;49642.94;;;-134.68
12409;BMP180;6268;48.188;17.134;2023-02-20T07:39:39;49642.94;;;-134.68
12409;BMP180;6268;48.188;17.134;2023-02-20T07:42:10;49642.94;;;-134.68
12409;BMP180;6268;48.188;17.134;2023-02-20T07:44:39;49644.88;;;-134.68
12409;BMP180;6268;48.188;17.134;2023-02-20T07:47:07;49642.94;;;-134.68
12409;BMP180;6268;48.188;17.134;2023-02-20T07:49:36;49646.84;;;-134.68
12409;BMP180;6268;48.188;17.134;2023-02-20T07:52:05;49646.84;;;-134.68
12409;BMP180;6268;48.188;17.134;2023-02-20T07:54:34;49646.84;;;-134.68
12409;BMP180;6268;48.188;17.134;2023-02-20T07:57:03;49644.88;;;-134.68
12409;BMP180;6268;48.188;17.134;2023-02-20T07:59:33;49642.94;;;-134.68
12409;BMP180;6268;48.188;17.134;2023-02-20T08:02:02;49642.94;;;-134.68
12409;BMP180;6268;48.188;17.134;2023-02-20T08:04:31;49644.88;;;-134.68
12409;BMP180;6268;48.188;17.134;2023-02-20T08:07:00;49646.84;;;-134.68
12409;BMP180;6268;48.188;17.134;2023-02-20T08:09:28;49644.88;;;-134.68
12409;BMP180;6268;48.188;17.134;2023-02-20T08:11:57;49642.94;;;-134.68
12409;BMP180;6268;48.188;17.134;2023-02-20T08:14:26;49646.84;;;-134.68
12409;BMP180;6268;48.188;17.134;2023-02-20T08:16:57;49644.88;;;-134.68
12409;BMP180;6268;48.188;17.134;2023-02-20T08:19:26;49642.94;;;-134.68
12409;BMP180;6268;48.188;17.134;2023-02-20T08:21:54;49642.94;;;-134.68
12409;BMP180;6268;48.188;17.134;2023-02-20T08:24:23;49642.94;;;-134.68
12409;BMP180;6268;48.188;17.134;2023-02-20T08:26:52;49644.88;;;-134.68
12409;BMP180;6268;48.188;17.134;2023-02-20T08:29:22;49641.00;;;-134.68
12409;BMP180;6268;48.188;17.134;2023-02-20T08:31:51;49644.88;;;-134.68
12409;BMP180;6268;48.188;17.134;2023-02-20T08:34:21;49646.84;;;-134.68
12409;BMP180;6268;48.188;17.134;2023-02-20T08:36:50;49644.88;;;-134.68
12409;BMP180;6268;48.188;17.134;2023-02-20T08:39:19;49642.94;;;-134.68
12409;BMP180;6268;48.188;17.134;2023-02-20T08:41:48;49646.84;;;-134.68
12409;BMP180;6268;48.188;17.134;2023-02-20T08:44:17;49646.84;;;-134.68
12409;BMP180;6268;48.188;17.134;2023-02-20T08:46:47;49642.94;;;-134.68
12409;BMP180;6268;48.188;17.134;2023-02-20T08:49:17;49646.84;;;-134.68
12409;BMP180;6268;48.188;17.134;2023-02-20T08:51:54;49642.94;;;-134.68
12409;BMP180;6268;48.188;17.134;2023-02-20T08:54:23;49642.94;;;-134.68
12409;BMP180;6268;48.188;17.134;2023-02-20T08:56:52;49642.94;;;-134.68
12409;BMP180;6268;48.188;17.134;2023-02-20T08:59:20;49644.88;;;-134.68
12409;BMP180;6268;48.188;17.134;2023-02-20T09:01:49;49646.84;;;-134.68
12409;BMP180;6268;48.188;17.134;2023-02-20T09:04:18;49642.94;;;-134.68
12409;BMP180;6268;48.188;17.134;2023-02-20T09:06:49;49644.88;;;-134.68
12409;BMP180;6268;48.188;17.134;2023-02-20T09:09:18;49644.88;;;-134.68
12409;BMP180;6268;48.188;17.134;2023-02-20T09:11:47;49644.88;;;-134.68
12409;BMP180;6268;48.188;17.134;2023-02-20T09:14:16;49644.88;;;-134.68
12409;BMP180;6268;48.188;17.134;2023-02-20T09:16:45;49646.84;;;-134.68
12409;BMP180;6268;48.188;17.134;2023-02-20T09:19:14;49642.94;;;-134.68
12409;BMP180;6268;48.188;17.134;2023-02-20T09:21:45;49644.88;;;-134.68
12409;BMP180;6268;48.188;17.134;2023-02-20T09:24:15;49644.88;;;-134.68
12409;BMP180;6268;48.188;17.134;2023-02-20T09:26:44;49646.84;;;-134.68
12409;BMP180;6268;48.188;17.134;2023-02-20T09:29:13;49648.78;;;-134.68
12409;BMP180;6268;48.188;17.134;2023-02-20T09:31:42;49648.78;;;-134.68
12409;BMP180;6268;48.188;17.134;2023-02-20T09:34:11;49648.78;;;-134.68
12409;BMP180;6268;48.188;17.134;2023-02-20T09:36:40;49648.78;;;-134.68
12409;BMP180;6268;48.188;17.134;2023-02-20T09:39:08;49646.84;;;-134.68
12409;BMP180;6268;48.188;17.134;2023-02-20T09:42:02;49646.84;;;-134.68
12409;BMP180;6268;48.188;17.134;2023-02-20T09:44:43;49648.78;;;-134.68
12409;BMP180;6268;48.188;17.134;2023-02-20T09:47:41;49650.72;;;-134.68
12409;BMP180;6268;48.188;17.134;2023-02-20T09:50:16;49652.66;;;-134.68
12409;BMP180;6268;48.188;17.134;2023-02-20T09:52:55;49648.78;;;-134.68
12409;BMP180;6268;48.188;17.134;2023-02-20T09:55:34;49648.78;;;-134.68
12409;BMP180;6268;48.188;17.134;2023-02-20T09:58:06;49648.78;;;-134.68
12409;BMP180;6268;48.188;17.134;2023-02-20T10:00:46;49650.72;;;-134.68
12409;BMP180;6268;48.188;17.134;2023-02-20T10:03:24;49646.84;;;-134.68
12409;BMP180;6268;48.188;17.134;2023-02-20T10:05:57;49650.72;;;-134.68
12409;BMP180;6268;48.188;17.134;2023-02-20T10:08:26;49650.72;;;-134.68
12409;BMP180;6268;48.188;17.134;2023-02-20T10:10:59;49650.72;;;-134.68
12409;BMP180;6268;48.188;17.134;2023-02-20T10:13:51;49650.72;;;-134.68
12409;BMP180;6268;48.188;17.134;2023-02-20T10:16:33;49650.72;;;-134.68
12409;BMP180;6268;48.188;17.134;2023-02-20T10:19:17;49650.72;;;-134.68
12409;BMP180;6268;48.188;17.134;2023-02-20T10:22:00;49648.78;;;-134.68
12409;BMP180;6268;48.188;17.134;2023-02-20T10:24:48;49650.72;;;-134.68
12409;BMP180;6268;48.188;17.134;2023-02-20T10:27:30;49650.72;;;-134.68
12409;BMP180;6268;48.188;17.134;2023-02-20T10:30:06;49648.78;;;-134.68
12409;BMP180;6268;48.188;17.134;2023-02-20T10:32:45;49650.72;;;-134.68
12409;BMP180;6268;48.188;17.134;2023-02-20T10:35:23;49650.72;;;-134.68
12409;BMP180;6268;48.188;17.134;2023-02-20T10:37:57;49646.84;;;-134.68
12409;BMP180;6268;48.188;17.134;2023-02-20T10:40:35;49648.78;;;-134.68
12409;BMP180;6268;48.188;17.134;2023-02-20T10:43:15;49650.72;;;-134.68
12409;BMP180;6268;48.188;17.134;2023-02-20T10:46:01;49646.84;;;-134.68
12409;BMP180;6268;48.188;17.134;2023-02-20T10:48:34;49648.78;;;-134.68
12409;BMP180;6268;48.188;17.134;2023-02-20T10:51:07;49646.84;;;-134.68
12409;BMP180;6268;48.188;17.134;2023-02-20T10:53:45;49648.78;;;-134.68
12409;BMP180;6268;48.188;17.134;2023-02-20T10:56:19;49650.72;;;-134.68
12409;BMP180;6268;48.188;17.134;2023-02-20T10:58:59;49648.78;;;-134.68
12409;BMP180;6268;48.188;17.134;2023-02-20T11:01:35;49648.78;;;-134.68
12409;BMP180;6268;48.188;17.134;2023-02-20T11:04:11;49646.84;;;-134.68
12409;BMP180;6268;48.188;17.134;2023-02-20T11:06:45;49648.78;;;-134.68
12409;BMP180;6268;48.188;17.134;2023-02-20T11:09:17;49650.72;;;-134.68
12409;BMP180;6268;48.188;17.134;2023-02-20T11:11:47;49646.84;;;-134.68
12409;BMP180;6268;48.188;17.134;2023-02-20T11:14:22;49648.78;;;-134.68
12409;BMP180;6268;48.188;17.134;2023-02-20T11:17:10;49648.78;;;-134.68
12409;BMP180;6268;48.188;17.134;2023-02-20T11:19:46;49648.78;;;-134.68
12409;BMP180;6268;48.188;17.134;2023-02-20T11:22:17;49646.84;;;-134.68
12409;BMP180;6268;48.188;17.134;2023-02-20T11:24:46;49646.84;;;-134.68
12409;BMP180;6268;48.188;17.134;2023-02-20T11:27:19;49646.84;;;-134.68
12409;BMP180;6268;48.188;17.134;2023-02-20T11:29:52;49650.72;;;-134.68
12409;BMP180;6268;48.188;17.134;2023-02-20T11:32:32;49646.84;;;-134.68
12409;BMP180;6268;48.188;17.134;2023-02-20T11:35:26;49650.72;;;-134.68
12409;BMP180;6268;48.188;17.134;2023-02-20T11:38:34;49648.78;;;-134.68
12409;BMP180;6268;48.188;17.134;2023-02-20T11:41:25;49650.72;;;-134.68
12409;BMP180;6268;48.188;17.134;2023-02-20T11:44:22;49648.78;;;-134.68
12409;BMP180;6268;48.188;17.134;2023-02-20T11:53:01;49650.72;;;-134.68
12409;BMP180;6268;48.188;17.134;2023-02-20T11:55:32;49648.78;;;-134.68
12409;BMP180;6268;48.188;17.134;2023-02-20T11:58:02;49646.84;;;-134.68
12409;BMP180;6268;48.188;17.134;2023-02-20T12:00:45;49644.88;;;-134.68
12409;BMP180;6268;48.188;17.134;2023-02-20T12:03:20;49646.84;;;-134.68
12409;BMP180;6268;48.188;17.134;2023-02-20T12:05:50;49648.78;;;-134.68
12409;BMP180;6268;48.188;17.134;2023-02-20T12:08:48;49648.78;;;-134.68
12409;BMP180;6268;48.188;17.134;2023-02-20T12:11:24;49646.84;;;-134.68
12409;BMP180;6268;48.188;17.134;2023-02-20T12:13:57;49646.84;;;-134.68
12409;BMP180;6268;48.188;17.134;2023-02-20T12:16:57;49648.78;;;-134.68
12409;BMP180;6268;48.188;17.134;2023-02-20T12:19:46;49644.88;;;-134.68
12409;BMP180;6268;48.188;17.134;2023-02-20T12:22:25;49648.78;;;-134.68
12409;BMP180;6268;48.188;17.134;2023-02-20T12:25:22;49646.84;;;-134.68
12409;BMP180;6268;48.188;17.134;2023-02-20T12:28:06;49648.78;;;-134.68
12409;BMP180;6268;48.188;17.134;2023-02-20T12:30:54;49646.84;;;-134.68
12409;BMP180;6268;48.188;17.134;2023-02-20T12:36:56;49646.84;;;-134.68
12409;BMP180;6268;48.188;17.134;2023-02-20T12:39:36;49646.84;;;-134.68
12409;BMP180;6268;48.188;17.134;2023-02-20T12:42:22;49646.84;;;-134.68
12409;BMP180;6268;48.188;17.134;2023-02-20T12:45:20;49646.84;;;-134.68
12409;BMP180;6268;48.188;17.134;2023-02-20T12:48:11;49648.78;;;-134.68
12409;BMP180;6268;48.188;17.134;2023-02-20T12:50:59;49648.78;;;-134.68
12409;BMP180;6268;48.188;17.134;2023-02-20T12:53:50;49650.72;;;-134.68
12409;BMP180;6268;48.188;17.134;2023-02-20T12:56:35;49648.78;;;-134.68
12409;BMP180;6268;48.188;17.134;2023-02-20T12:59:24;49646.84;;;-134.68
12409;BMP180;6268;48.188;17.134;2023-02-20T13:01:54;49648.78;;;-134.68
12409;BMP180;6268;48.188;17.134;2023-02-20T13:04:30;49644.88;;;-134.68
12409;BMP180;6268;48.188;17.134;2023-02-20T13:07:06;49650.72;;;-134.68
12409;BMP180;6268;48.188;17.134;2023-02-20T13:09:43;49650.72;;;-134.68
12409;BMP180;6268;48.188;17.134;2023-02-20T13:12:15;49648.78;;;-134.68
12409;BMP180;6268;48.188;17.134;2023-02-20T13:15:19;49650.72;;;-134.68
12409;BMP180;6268;48.188;17.134;2023-02-20T13:18:01;49648.78;;;-134.68
12409;BMP180;6268;48.188;17.134;2023-02-20T13:20:38;49648.78;;;-134.68
12409;BMP180;6268;48.188;17.134;2023-02-20T13:23:28;49646.84;;;-134.68
12409;BMP180;6268;48.188;17.134;2023-02-20T13:25:57;49644.88;;;-134.68
12409;BMP180;6268;48.188;17.134;2023-02-20T13:28:35;49650.72;;;-134.68
12409;BMP180;6268;48.188;17.134;2023-02-20T13:31:15;49646.84;;;-134.68
12409;BMP180;6268;48.188;17.134;2023-02-20T13:33:47;49646.84;;;-134.68
12409;BMP180;6268;48.188;17.134;2023-02-20T13:36:37;49644.88;;;-134.68
12409;BMP180;6268;48.188;17.134;2023-02-20T13:39:44;49646.84;;;-134.68
12409;BMP180;6268;48.188;17.134;2023-02-20T13:42:33;49648.78;;;-134.68
12409;BMP180;6268;48.188;17.134;2023-02-20T13:45:41;49644.88;;;-134.68
12409;BMP180;6268;48.188;17.134;2023-02-20T13:48:21;49646.84;;;-134.68
12409;BMP180;6268;48.188;17.134;2023-02-20T13:51:34;49644.88;;;-134.68
12409;BMP180;6268;48.188;17.134;2023-02-20T13:54:33;49648.78;;;-134.68
12409;BMP180;6268;48.188;17.134;2023-02-20T13:57:17;49646.84;;;-134.68
12409;BMP180;6268;48.188;17.134;2023-02-20T13:59:48;49646.84;;;-134.68
12409;BMP180;6268;48.188;17.134;2023-02-20T14:02:21;49648.78;;;-134.68
12409;BMP180;6268;48.188;17.134;2023-02-20T14:05:00;49648.78;;;-134.68
12409;BMP180;6268;48.188;17.134;2023-02-20T14:07:34;49648.78;;;-134.68
12409;BMP180;6268;48.188;17.134;2023-02-20T14:10:13;49650.72;;;-134.68
12409;BMP180;6268;48.188;17.134;2023-02-20T14:12:43;49648.78;;;-134.68
12409;BMP180;6268;48.188;17.134;2023-02-20T14:15:12;49648.78;;;-134.68
12409;BMP180;6268;48.188;17.134;2023-02-20T14:17:42;49646.84;;;-134.68
12409;BMP180;6268;48.188;17.134;2023-02-20T14:20:21;49650.72;;;-134.68
12409;BMP180;6268;48.188;17.134;2023-02-20T14:23:07;49650.72;;;-134.68
12409;BMP180;6268;48.188;17.134;2023-02-20T14:25:37;49646.84;;;-134.68
12409;BMP180;6268;48.188;17.134;2023-02-20T14:28:14;49648.78;;;-134.68
12409;BMP180;6268;48.188;17.134;2023-02-20T14:30:43;49648.78;;;-134.68
12409;BMP180;6268;48.188;17.134;2023-02-20T14:33:23;49648.78;;;-134.68
12409;BMP180;6268;48.188;17.134;2023-02-20T14:36:12;49648.78;;;-134.68
12409;BMP180;6268;48.188;17.134;2023-02-20T14:39:26;49648.78;;;-134.68
12409;BMP180;6268;48.188;17.134;2023-02-20T14:42:01;49650.72;;;-134.68
12409;BMP180;6268;48.188;17.134;2023-02-20T14:44:31;49644.88;;;-134.68